Time;durP1;ratioP1;P1;durP2;ratioP2;P2;SDS_P1;SDS_P2;PMS_P1;PMS_P2;Temp;Humidity;BMP_temperature;BMP_pressure;BME280_temperature;BME280_humidity;BME280_pressure;Samples;Min_cycle;Max_cycle;Signal;HPM_P1;HPM_P2
2021/03/25 00:01:38;;;;;;;5.30;3.20;;;4.30;80.10;;;;;;5075208;28;20233;-88
2021/03/25 00:04:05;;;;;;;3.97;2.90;;;4.30;80.20;;;;;;5072467;28;20282;-88
2021/03/25 00:06:34;;;;;;;5.63;3.47;;;4.30;80.00;;;;;;5075253;28;20213;-87
2021/03/25 00:09:02;;;;;;;5.37;2.93;;;4.30;80.20;;;;;;5071610;28;20213;-87
2021/03/25 00:15:25;;;;;;;4.03;2.80;;;4.20;80.70;;;;;;5074540;28;20232;-87
2021/03/25 00:17:52;;;;;;;5.93;2.73;;;4.10;80.20;;;;;;5075024;28;20602;-87
2021/03/25 00:20:19;;;;;;;5.30;3.10;;;4.00;80.80;;;;;;5073989;28;20281;-87
2021/03/25 00:22:46;;;;;;;5.03;2.90;;;4.00;81.00;;;;;;5074466;28;20291;-89
2021/03/25 00:25:15;;;;;;;3.93;2.80;;;4.00;81.20;;;;;;5074799;28;20275;-88
2021/03/25 00:27:41;;;;;;;4.83;3.17;;;4.00;80.80;;;;;;5075007;28;20667;-88
2021/03/25 00:30:10;;;;;;;4.37;2.70;;;3.90;80.80;;;;;;5072974;28;20316;-87
2021/03/25 00:32:37;;;;;;;4.20;2.70;;;3.90;80.60;;;;;;5075324;28;20255;-88
2021/03/25 00:35:05;;;;;;;4.30;3.00;;;3.90;81.00;;;;;;5074718;28;20229;-88
2021/03/25 00:37:31;;;;;;;6.03;3.20;;;3.90;81.30;;;;;;5075391;28;20707;-88
2021/03/25 00:39:58;;;;;;;4.20;2.80;;;4.00;81.80;;;;;;5085381;28;20280;-88
2021/03/25 00:42:24;;;;;;;3.57;2.90;;;3.90;82.00;;;;;;5078226;28;20201;-88
2021/03/25 00:44:51;;;;;;;7.67;3.80;;;3.90;82.00;;;;;;5075580;28;20639;-88
2021/03/25 00:47:17;;;;;;;7.10;3.10;;;3.90;81.90;;;;;;5091002;28;20784;-87
2021/03/25 00:49:44;;;;;;;5.50;3.17;;;3.90;82.20;;;;;;5066389;28;20240;-87
2021/03/25 00:52:11;;;;;;;4.40;2.57;;;3.80;82.20;;;;;;5074784;28;20278;-87
2021/03/25 00:54:38;;;;;;;5.63;2.80;;;3.80;82.60;;;;;;5075393;28;20620;-86
2021/03/25 00:57:05;;;;;;;4.17;2.70;;;3.80;82.50;;;;;;5074981;28;20560;-88
2021/03/25 00:59:32;;;;;;;5.50;3.00;;;3.80;83.10;;;;;;5078289;28;20318;-87
2021/03/25 01:02:00;;;;;;;8.43;3.03;;;3.80;82.40;;;;;;5069554;28;20198;-89
2021/03/25 01:04:27;;;;;;;5.43;2.70;;;3.80;82.20;;;;;;5054031;28;20321;-87
2021/03/25 01:06:55;;;;;;;3.97;2.63;;;3.90;82.20;;;;;;5067366;28;20197;-87
2021/03/25 01:09:28;;;;;;;5.60;2.60;;;3.90;82.70;;;;;;5072252;28;20228;-87
2021/03/25 01:11:56;;;;;;;4.97;2.60;;;3.90;82.50;;;;;;5084642;28;20196;-87
2021/03/25 01:14:25;;;;;;;3.93;2.50;;;3.90;82.10;;;;;;5054516;28;20337;-87
2021/03/25 01:17:01;;;;;;;3.60;2.60;;;3.80;82.00;;;;;;5055856;28;20252;-87
2021/03/25 01:19:30;;;;;;;5.90;2.80;;;3.80;82.10;;;;;;5069123;28;20326;-87
2021/03/25 01:21:58;;;;;;;6.77;2.60;;;3.80;83.00;;;;;;5075929;28;20198;-87
2021/03/25 01:24:25;;;;;;;4.80;2.57;;;3.70;84.60;;;;;;5073429;28;20309;-87
2021/03/25 01:26:51;;;;;;;4.10;2.30;;;3.70;83.70;;;;;;5076066;28;20205;-87
2021/03/25 01:29:19;;;;;;;3.97;2.40;;;3.70;83.50;;;;;;5073220;28;20229;-88
2021/03/25 01:31:46;;;;;;;3.33;2.30;;;3.80;83.00;;;;;;5074676;28;20198;-86
2021/03/25 01:34:14;;;;;;;3.83;2.20;;;3.80;82.60;;;;;;5078437;28;20614;-89
2021/03/25 01:36:41;;;;;;;3.03;2.13;;;3.80;82.80;;;;;;5079075;28;20203;-86
2021/03/25 01:39:09;;;;;;;4.37;2.30;;;3.80;82.60;;;;;;5077876;28;20320;-86
2021/03/25 01:41:37;;;;;;;3.23;2.30;;;3.80;83.10;;;;;;5075323;28;20193;-86
2021/03/25 01:44:04;;;;;;;4.17;2.40;;;3.80;83.00;;;;;;5078273;28;20229;-86
2021/03/25 01:46:33;;;;;;;3.70;2.33;;;3.70;83.60;;;;;;5076846;28;20209;-88
2021/03/25 01:49:03;;;;;;;3.03;2.30;;;3.60;83.60;;;;;;5078465;28;20232;-86
2021/03/25 01:51:45;;;;;;;3.30;2.13;;;3.60;83.40;;;;;;5079237;28;20197;-86
2021/03/25 01:54:29;;;;;;;3.33;2.20;;;3.60;83.70;;;;;;5079028;28;20555;-88
2021/03/25 01:57:14;;;;;;;3.30;2.60;;;3.60;83.90;;;;;;5080549;28;20189;-88
2021/03/25 02:03:18;;;;;;;3.33;2.20;;;3.60;83.60;;;;;;5078318;28;20211;-88
2021/03/25 02:05:53;;;;;;;2.33;2.03;;;3.60;83.40;;;;;;5079518;28;20224;-88
2021/03/25 02:08:32;;;;;;;3.03;1.80;;;3.70;83.40;;;;;;5076753;28;20208;-88
2021/03/25 02:11:06;;;;;;;2.87;2.13;;;3.70;83.10;;;;;;5077815;28;20271;-88
2021/03/25 02:13:41;;;;;;;2.40;2.00;;;3.70;83.00;;;;;;5080155;28;20186;-88
2021/03/25 02:16:12;;;;;;;3.57;2.00;;;3.60;83.00;;;;;;5077220;28;20227;-88
2021/03/25 02:18:45;;;;;;;2.80;2.10;;;3.60;83.00;;;;;;5081824;28;20678;-88
2021/03/25 02:21:49;;;;;;;5.30;2.23;;;3.70;83.20;;;;;;5097658;28;20208;-88
2021/03/25 02:24:41;;;;;;;3.90;2.03;;;3.70;83.30;;;;;;5097772;28;20220;-88
2021/03/25 02:30:37;;;;;;;2.87;2.00;;;3.60;82.60;;;;;;5078179;28;20224;-87
2021/03/25 02:33:09;;;;;;;3.03;2.23;;;3.60;83.40;;;;;;5078165;28;20234;-88
2021/03/25 02:35:40;;;;;;;2.93;2.13;;;3.60;83.10;;;;;;5077334;28;20216;-88
2021/03/25 02:38:10;;;;;;;2.70;2.30;;;3.70;83.00;;;;;;5084819;28;20552;-88
2021/03/25 02:40:42;;;;;;;3.77;2.00;;;3.70;82.80;;;;;;5098688;28;20693;-87
2021/03/25 02:43:14;;;;;;;2.67;1.77;;;3.60;82.80;;;;;;5099093;28;20188;-88
2021/03/25 02:45:45;;;;;;;2.33;1.70;;;3.60;82.40;;;;;;5096365;28;20559;-88
2021/03/25 02:48:15;;;;;;;1.97;1.70;;;3.60;83.30;;;;;;5097293;28;20193;-88
2021/03/25 02:50:45;;;;;;;3.87;2.00;;;3.60;82.90;;;;;;5095879;28;20235;-87
2021/03/25 02:53:18;;;;;;;2.93;1.97;;;3.60;82.30;;;;;;5096443;28;20201;-87
2021/03/25 02:55:45;;;;;;;2.23;1.90;;;3.60;83.20;;;;;;5066426;28;20707;-88
2021/03/25 02:58:16;;;;;;;2.97;1.90;;;3.50;83.20;;;;;;5075957;28;20217;-87
2021/03/25 03:00:47;;;;;;;1.70;1.60;;;3.60;83.30;;;;;;5075776;28;20228;-88
2021/03/25 03:03:19;;;;;;;3.17;1.90;;;3.60;83.10;;;;;;5076395;28;20200;-87
2021/03/25 03:05:49;;;;;;;4.03;2.13;;;3.50;83.30;;;;;;5075587;28;20278;-88
2021/03/25 03:08:19;;;;;;;2.60;2.00;;;3.60;83.60;;;;;;5075587;28;20189;-87
2021/03/25 03:10:51;;;;;;;3.17;2.07;;;3.50;83.20;;;;;;5075570;28;20233;-88
2021/03/25 03:13:19;;;;;;;5.43;1.90;;;3.50;83.20;;;;;;5075948;28;20685;-87
2021/03/25 03:15:49;;;;;;;7.80;1.97;;;3.50;82.70;;;;;;5075369;28;20225;-87
2021/03/25 03:18:21;;;;;;;3.30;2.00;;;3.50;82.70;;;;;;5075116;28;20324;-87
2021/03/25 03:20:55;;;;;;;2.33;1.90;;;3.50;83.20;;;;;;5073465;28;20213;-88
2021/03/25 03:23:23;;;;;;;3.87;2.03;;;3.50;83.60;;;;;;5073935;28;20544;-87
2021/03/25 03:25:50;;;;;;;3.27;1.70;;;3.50;82.60;;;;;;5071964;28;20221;-87
2021/03/25 03:28:21;;;;;;;2.30;1.80;;;3.50;82.70;;;;;;5075963;28;20207;-87
2021/03/25 03:30:51;;;;;;;2.33;1.87;;;3.50;83.00;;;;;;5072918;28;20229;-87
2021/03/25 03:33:23;;;;;;;3.23;2.00;;;3.50;83.10;;;;;;5075568;28;20203;-87
2021/03/25 03:35:52;;;;;;;1.93;1.70;;;3.50;83.30;;;;;;5074903;28;20327;-87
2021/03/25 03:38:26;;;;;;;2.47;1.87;;;3.40;83.00;;;;;;5075394;28;20240;-87
2021/03/25 03:40:55;;;;;;;2.27;1.73;;;3.40;82.80;;;;;;5074483;28;20232;-88
2021/03/25 03:43:22;;;;;;;3.07;1.70;;;3.40;82.70;;;;;;5074405;28;20216;-87
2021/03/25 03:45:53;;;;;;;3.47;2.80;;;3.40;82.60;;;;;;5070213;28;20233;-87
2021/03/25 03:48:29;;;;;;;3.53;1.70;;;3.40;83.30;;;;;;5055367;28;20235;-87
2021/03/25 03:50:58;;;;;;;2.27;1.73;;;3.40;83.00;;;;;;5054311;28;20633;-87
2021/03/25 03:53:26;;;;;;;2.33;1.70;;;3.40;83.20;;;;;;5054243;28;20194;-87
2021/03/25 03:56:01;;;;;;;4.30;1.70;;;3.30;83.10;;;;;;5053442;28;20232;-87
2021/03/25 03:58:36;;;;;;;3.27;1.47;;;3.30;82.80;;;;;;5063810;28;20209;-87
2021/03/25 04:01:08;;;;;;;3.10;1.83;;;3.30;82.70;;;;;;5076031;28;20592;-88
2021/03/25 04:03:40;;;;;;;1.97;1.40;;;3.30;83.30;;;;;;5076994;28;20207;-87
2021/03/25 04:06:09;;;;;;;2.83;1.70;;;3.20;83.30;;;;;;5094552;28;20208;-87
2021/03/25 04:08:50;;;;;;;1.83;1.60;;;3.10;83.90;;;;;;5095562;28;20196;-87
2021/03/25 04:11:21;;;;;;;1.80;1.50;;;3.20;84.90;;;;;;5095332;28;20208;-87
2021/03/25 04:13:52;;;;;;;1.60;1.43;;;3.20;83.90;;;;;;5074214;28;20196;-87
2021/03/25 04:16:23;;;;;;;2.37;1.60;;;3.10;83.20;;;;;;5074999;28;20186;-87
2021/03/25 04:18:57;;;;;;;4.27;2.70;;;3.10;84.40;;;;;;5073026;28;20205;-88
2021/03/25 04:21:27;;;;;;;2.80;1.77;;;3.10;84.30;;;;;;5071950;28;20257;-87
2021/03/25 04:23:55;;;;;;;4.10;1.70;;;3.10;83.80;;;;;;5074329;28;20194;-87
2021/03/25 04:26:31;;;;;;;2.33;1.73;;;3.10;83.80;;;;;;5074146;28;20251;-87
2021/03/25 04:29:02;;;;;;;3.10;2.23;;;3.10;83.80;;;;;;5054499;28;20189;-87
2021/03/25 04:31:29;;;;;;;3.33;2.00;;;3.10;84.50;;;;;;5056517;28;20186;-87
2021/03/25 04:33:58;;;;;;;2.27;1.83;;;3.00;84.30;;;;;;5053689;28;20194;-88
2021/03/25 04:36:26;;;;;;;2.93;1.70;;;3.00;84.20;;;;;;5055012;28;20209;-87
2021/03/25 04:38:55;;;;;;;2.23;1.70;;;3.00;84.10;;;;;;5059280;28;20229;-87
2021/03/25 04:41:21;;;;;;;2.00;1.77;;;3.10;84.30;;;;;;5074598;28;20258;-87
2021/03/25 04:43:49;;;;;;;2.83;2.13;;;3.10;84.40;;;;;;5073385;28;20201;-88
2021/03/25 04:46:40;;;;;;;5.00;2.57;;;3.10;83.90;;;;;;5072558;28;20682;-87
2021/03/25 04:52:31;;;;;;;5.57;2.23;;;3.10;83.90;;;;;;5074125;28;20207;-87
2021/03/25 04:55:07;;;;;;;5.13;2.40;;;3.10;83.60;;;;;;5074522;28;20247;-87
2021/03/25 04:57:36;;;;;;;2.13;1.87;;;3.10;83.80;;;;;;5072422;28;20231;-86
2021/03/25 05:00:09;;;;;;;3.13;2.13;;;3.20;83.60;;;;;;5073917;28;20577;-88
2021/03/25 05:02:36;;;;;;;4.07;1.80;;;3.10;83.50;;;;;;5073917;28;20201;-86
2021/03/25 05:05:04;;;;;;;2.37;1.70;;;3.10;83.90;;;;;;5075173;28;20255;-86
2021/03/25 05:07:35;;;;;;;2.30;1.83;;;3.10;84.10;;;;;;5074544;28;20205;-86
2021/03/25 05:10:12;;;;;;;1.67;1.57;;;3.00;84.20;;;;;;5079149;28;20279;-88
2021/03/25 05:12:39;;;;;;;2.37;1.53;;;3.00;84.70;;;;;;5079421;28;20195;-88
2021/03/25 05:15:10;;;;;;;2.60;2.00;;;3.00;83.20;;;;;;5078492;28;20262;-88
2021/03/25 05:17:45;;;;;;;3.13;1.60;;;3.10;82.90;;;;;;5077046;28;20278;-88
2021/03/25 05:20:19;;;;;;;1.80;1.50;;;3.10;82.90;;;;;;5077828;28;20244;-89
2021/03/25 05:23:00;;;;;;;3.93;1.50;;;3.10;82.80;;;;;;5076643;28;20201;-86
2021/03/25 05:25:35;;;;;;;4.87;1.57;;;3.10;83.60;;;;;;5078203;28;20231;-86
2021/03/25 05:28:07;;;;;;;4.87;1.60;;;3.20;82.90;;;;;;5079114;28;20192;-86
2021/03/25 05:30:36;;;;;;;2.50;2.23;;;3.20;83.10;;;;;;5074138;28;20221;-87
2021/03/25 05:33:06;;;;;;;3.00;1.57;;;3.20;83.10;;;;;;5074727;28;20204;-87
2021/03/25 05:35:36;;;;;;;2.70;2.03;;;3.20;82.50;;;;;;5077436;28;20683;-86
2021/03/25 05:38:04;;;;;;;2.23;1.80;;;3.30;82.40;;;;;;5077050;28;20611;-87
2021/03/25 05:40:37;;;;;;;6.97;1.80;;;3.30;82.80;;;;;;5074183;28;20232;-87
2021/03/25 05:43:25;;;;;;;2.47;1.87;;;3.30;82.40;;;;;;5070541;28;20682;-86
2021/03/25 05:46:02;;;;;;;2.00;1.57;;;3.40;82.60;;;;;;5076387;28;20580;-87
2021/03/25 05:48:53;;;;;;;2.43;1.60;;;3.40;82.30;;;;;;5078779;28;20544;-87
2021/03/25 05:51:32;;;;;;;5.00;2.00;;;3.50;82.00;;;;;;5076241;28;20221;-86
2021/03/25 05:54:18;;;;;;;5.03;1.80;;;3.60;81.50;;;;;;5079293;28;20201;-88
2021/03/25 05:57:00;;;;;;;2.10;1.70;;;3.60;82.10;;;;;;5081771;28;20192;-83
2021/03/25 05:59:33;;;;;;;2.67;1.80;;;3.70;82.50;;;;;;5081566;28;20239;-83
2021/03/25 06:12:14;;;;;;;4.03;1.70;;;3.90;81.70;;;;;;5076968;28;20580;-84
2021/03/25 06:14:52;;;;;;;6.67;1.90;;;4.10;80.90;;;;;;5076607;28;20269;-85
2021/03/25 06:17:56;;;;;;;3.83;1.90;;;4.30;80.60;;;;;;5077628;28;20197;-86
2021/03/25 06:20:54;;;;;;;3.13;2.00;;;4.40;79.30;;;;;;5078340;28;20279;-85
2021/03/25 06:23:43;;;;;;;4.13;2.20;;;4.50;79.40;;;;;;5084370;28;20660;-84
2021/03/25 06:26:26;;;;;;;9.13;1.77;;;4.60;79.30;;;;;;5097055;28;20212;-85
2021/03/25 06:29:02;;;;;;;3.80;2.07;;;4.80;77.70;;;;;;5072295;28;20551;-85
2021/03/25 06:31:44;;;;;;;3.83;1.80;;;4.90;77.10;;;;;;5070132;28;20205;-86
2021/03/25 06:34:18;;;;;;;3.40;2.20;;;5.10;76.70;;;;;;5066472;28;20224;-86
2021/03/25 06:36:49;;;;;;;4.10;1.90;;;5.40;76.40;;;;;;5071635;28;20219;-85
2021/03/25 06:39:25;;;;;;;6.90;2.00;;;6.20;71.00;;;;;;5074251;28;20592;-86
2021/03/25 06:42:15;;;;;;;2.73;1.70;;;7.60;64.10;;;;;;5077379;28;20216;-87
2021/03/25 06:44:48;;;;;;;7.05;2.00;;;8.90;57.40;;;;;;5065935;28;20221;-87
2021/03/25 06:47:20;;;;;;;3.40;1.55;;;9.90;48.30;;;;;;5082570;28;20201;-88
2021/03/25 06:49:50;;;;;;;3.58;2.05;;;10.80;45.00;;;;;;5079358;28;20231;-87
2021/03/25 06:52:40;;;;;;;3.95;1.85;;;11.60;41.40;;;;;;5082610;28;20605;-87
2021/03/25 06:55:13;;;;;;;6.85;1.80;;;12.60;39.90;;;;;;5073934;28;20241;-88
2021/03/25 06:57:46;;;;;;;2.90;1.95;;;13.30;36.80;;;;;;5073743;28;20209;-87
2021/03/25 07:00:17;;;;;;;4.53;1.63;;;13.80;35.10;;;;;;5073453;28;20237;-87
2021/03/25 07:02:45;;;;;;;7.53;2.10;;;13.40;34.70;;;;;;5063970;28;20210;-87
2021/03/25 07:05:21;;;;;;;5.60;1.73;;;13.20;34.90;;;;;;5070389;28;20278;-90
2021/03/25 07:07:53;;;;;;;5.85;1.90;;;13.20;34.20;;;;;;5069720;28;20209;-87
2021/03/25 07:10:20;;;;;;;5.30;2.05;;;13.10;35.10;;;;;;5069177;28;20225;-87
2021/03/25 07:12:49;;;;;;;7.47;1.98;;;13.10;34.70;;;;;;5078081;28;20202;-90
2021/03/25 07:15:23;;;;;;;6.03;1.77;;;12.80;34.90;;;;;;5083769;28;20227;-88
2021/03/25 07:17:59;;;;;;;6.95;1.85;;;12.50;36.20;;;;;;5082275;28;20564;-88
2021/03/25 07:20:30;;;;;;;3.47;1.85;;;12.00;36.80;;;;;;5072538;28;20224;-89
2021/03/25 07:23:10;;;;;;;4.47;1.70;;;12.00;36.80;;;;;;5087942;28;20247;-88
2021/03/25 07:25:40;;;;;;;3.08;1.90;;;12.40;34.60;;;;;;5082984;28;20231;-87
2021/03/25 07:28:52;;;;;;;5.22;2.08;;;12.40;34.50;;;;;;5087849;28;20197;-87
2021/03/25 07:31:29;;;;;;;4.47;2.00;;;12.30;34.50;;;;;;5078907;28;20596;-88
2021/03/25 07:33:55;;;;;;;6.97;2.10;;;12.20;35.00;;;;;;5079130;28;20500;-87
2021/03/25 07:36:22;;;;;;;11.35;2.17;;;12.00;34.90;;;;;;5081535;28;20226;-87
2021/03/25 07:38:48;;;;;;;5.85;2.50;;;11.70;36.10;;;;;;5064166;28;20266;-87
2021/03/25 07:41:20;;;;;;;2.50;2.10;;;11.60;35.10;;;;;;5078480;28;20208;-90
2021/03/25 07:43:53;;;;;;;3.47;1.92;;;11.70;35.10;;;;;;5084375;28;20224;-87
2021/03/25 07:46:29;;;;;;;6.22;2.10;;;11.70;35.40;;;;;;5072789;28;20208;-87
2021/03/25 07:48:57;;;;;;;2.78;1.95;;;11.60;35.60;;;;;;5079956;28;20637;-87
2021/03/25 07:51:24;;;;;;;6.82;1.92;;;11.90;34.60;;;;;;5074567;28;20538;-87
2021/03/25 07:54:08;;;;;;;3.55;2.13;;;12.20;33.80;;;;;;5065834;28;20215;-89
2021/03/25 07:56:35;;;;;;;2.85;1.80;;;12.50;32.60;;;;;;5077785;28;20296;-90
2021/03/25 07:59:02;;;;;;;3.40;2.10;;;12.80;33.70;;;;;;5088320;28;20221;-89
2021/03/25 08:01:29;;;;;;;3.75;2.00;;;13.60;32.50;;;;;;5058699;28;20237;-91
2021/03/25 08:03:58;;;;;;;3.90;2.30;;;14.70;28.60;;;;;;5063704;28;20320;-88
2021/03/25 08:06:29;;;;;;;2.63;2.00;;;15.40;28.20;;;;;;5077303;28;20204;-91
2021/03/25 08:09:02;;;;;;;2.42;2.20;;;15.20;28.00;;;;;;5071270;28;20284;-89
2021/03/25 08:11:29;;;;;;;3.03;2.20;;;15.00;27.90;;;;;;5073855;28;20548;-88
2021/03/25 08:13:59;;;;;;;3.83;2.30;;;15.00;29.60;;;;;;5078171;28;20196;-90
2021/03/25 08:16:28;;;;;;;5.03;2.15;;;15.00;27.90;;;;;;5087658;28;20205;-89
2021/03/25 08:19:14;;;;;;;6.03;2.40;;;14.80;27.70;;;;;;5074995;28;20229;-89
2021/03/25 08:22:05;;;;;;;6.60;2.65;;;15.00;27.90;;;;;;5065209;28;20216;-89
2021/03/25 08:24:46;;;;;;;4.55;2.38;;;15.30;28.10;;;;;;5079896;28;20620;-87
2021/03/25 08:27:35;;;;;;;5.03;4.05;;;15.60;28.30;;;;;;5083647;28;20201;-91
2021/03/25 08:30:22;;;;;;;4.95;2.50;;;15.60;28.30;;;;;;5077467;28;20279;-88
2021/03/25 08:32:56;;;;;;;5.22;3.50;;;15.80;28.50;;;;;;5084179;28;20204;-88
2021/03/25 08:35:31;;;;;;;5.45;3.22;;;16.10;28.80;;;;;;5087396;28;20225;-89
2021/03/25 08:38:38;;;;;;;5.88;3.33;;;16.00;28.70;;;;;;5085235;28;20220;-87
2021/03/25 08:41:12;;;;;;;7.13;3.55;;;15.90;28.60;;;;;;5042755;28;20226;-90
2021/03/25 08:43:44;;;;;;;6.80;3.55;;;15.50;28.30;;;;;;5080104;28;20194;-88
2021/03/25 08:46:19;;;;;;;9.77;3.80;;;15.80;28.50;;;;;;5091291;28;20235;-89
2021/03/25 08:48:52;;;;;;;5.90;3.20;;;16.00;28.70;;;;;;5095423;28;20203;-89
2021/03/25 08:51:24;;;;;;;6.70;3.35;;;16.50;29.10;;;;;;5087706;28;20244;-88
2021/03/25 08:53:55;;;;;;;4.53;3.40;;;17.00;29.60;;;;;;5091368;28;20502;-89
2021/03/25 08:56:31;;;;;;;9.80;4.18;;;17.50;26.50;;;;;;5084319;28;20208;-88
2021/03/25 08:59:00;;;;;;;8.30;5.15;;;17.70;27.30;;;;;;5081244;28;20216;-88
2021/03/25 09:01:32;;;;;;;7.93;5.30;;;17.70;27.00;;;;;;5079638;28;20193;-87
2021/03/25 09:04:01;;;;;;;7.65;4.97;;;18.20;24.90;;;;;;5083494;28;20193;-86
2021/03/25 09:06:31;;;;;;;7.95;4.80;;;18.10;24.50;;;;;;5091221;28;20260;-87
2021/03/25 09:09:05;;;;;;;11.45;5.82;;;18.10;25.20;;;;;;5091716;28;20193;-86
2021/03/25 09:11:32;;;;;;;12.35;5.75;;;17.80;26.40;;;;;;5070941;28;20201;-86
2021/03/25 09:14:00;;;;;;;6.68;5.65;;;18.10;26.30;;;;;;5087860;28;20575;-89
2021/03/25 09:16:30;;;;;;;10.10;6.13;;;18.90;24.50;;;;;;5090208;28;20197;-87
2021/03/25 09:18:57;;;;;;;7.82;6.10;;;18.90;23.50;;;;;;5078317;28;20233;-86
2021/03/25 09:21:26;;;;;;;9.45;6.30;;;19.60;23.10;;;;;;5083156;28;20201;-86
2021/03/25 09:24:12;;;;;;;7.40;5.75;;;21.00;22.20;;;;;;5082917;28;20221;-85
2021/03/25 09:27:00;;;;;;;10.15;6.57;;;22.90;18.50;;;;;;5079587;28;20208;-87
2021/03/25 09:29:30;;;;;;;9.93;7.30;;;24.20;18.90;;;;;;5075564;28;20238;-88
2021/03/25 09:32:37;;;;;;;9.82;7.82;;;24.50;16.50;;;;;;5068272;28;20546;-85
2021/03/25 09:35:35;;;;;;;12.77;7.43;;;24.80;15.10;;;;;;5076743;28;20220;-85
2021/03/25 09:38:07;;;;;;;14.60;8.15;;;23.90;16.60;;;;;;5065642;28;20672;-84
2021/03/25 09:40:47;;;;;;;10.57;8.48;;;24.40;16.60;;;;;;5080621;28;20654;-86
2021/03/25 09:43:39;;;;;;;11.10;8.65;;;24.50;15.50;;;;;;5075633;28;20697;-86
2021/03/25 09:46:33;;;;;;;9.10;7.85;;;25.60;14.40;;;;;;5078785;28;20216;-85
2021/03/25 09:49:28;;;;;;;12.55;8.85;;;26.80;15.00;;;;;;5077966;28;20254;-85
2021/03/25 09:52:12;;;;;;;9.40;8.30;;;26.80;15.00;;;;;;5074580;28;20208;-85
2021/03/25 09:54:40;;;;;;;9.75;8.65;;;27.10;13.40;;;;;;5078723;28;20228;-84
2021/03/25 09:57:18;;;;;;;8.55;7.65;;;27.30;13.30;;;;;;5077157;28;20623;-86
2021/03/25 09:59:51;;;;;;;11.07;8.30;;;26.90;15.10;;;;;;5068886;28;20296;-86
2021/03/25 10:02:52;;;;;;;10.70;8.18;;;27.50;14.40;;;;;;5074711;28;20207;-83
2021/03/25 10:05:34;;;;;;;17.10;9.00;;;26.90;13.30;;;;;;5073345;28;20251;-84
2021/03/25 10:08:03;;;;;;;11.68;8.63;;;26.70;15.00;;;;;;5068107;28;20644;-84
2021/03/25 10:10:39;;;;;;;12.32;9.10;;;25.70;14.50;;;;;;5066247;28;20566;-84
2021/03/25 10:13:38;;;;;;;11.02;8.00;;;25.60;14.50;;;;;;5057504;28;20651;-84
2021/03/25 10:16:07;;;;;;;12.43;8.75;;;26.50;14.90;;;;;;5063974;28;20308;-84
2021/03/25 10:18:52;;;;;;;10.77;8.43;;;25.20;14.20;;;;;;5079696;28;20216;-83
2021/03/25 10:21:40;;;;;;;9.80;8.80;;;24.40;15.10;;;;;;5075335;28;20212;-84
2021/03/25 10:24:17;;;;;;;11.70;8.20;;;23.70;15.20;;;;;;5064498;28;20224;-83
2021/03/25 10:26:44;;;;;;;13.10;8.15;;;24.10;16.70;;;;;;5066571;28;20599;-83
2021/03/25 10:29:17;;;;;;;12.95;8.75;;;23.90;15.80;;;;;;5063859;28;20229;-84
2021/03/25 10:31:47;;;;;;;10.80;8.68;;;24.40;17.00;;;;;;5072158;28;20215;-83
2021/03/25 10:34:20;;;;;;;11.38;8.05;;;24.20;15.40;;;;;;5067164;28;20246;-83
2021/03/25 10:36:52;;;;;;;10.32;8.40;;;24.90;16.10;;;;;;5068516;28;20679;-84
2021/03/25 10:39:25;;;;;;;9.82;8.77;;;25.40;15.30;;;;;;5076246;28;20307;-84
2021/03/25 10:41:52;;;;;;;12.68;8.88;;;24.70;15.00;;;;;;5079177;28;20296;-85
2021/03/25 10:44:26;;;;;;;10.57;8.43;;;24.70;15.50;;;;;;5076358;28;20228;-84
2021/03/25 10:46:55;;;;;;;13.20;9.52;;;25.00;15.70;;;;;;5063256;28;20216;-84
2021/03/25 10:49:25;;;;;;;11.88;9.38;;;24.40;15.10;;;;;;5072102;28;20241;-84
2021/03/25 10:51:52;;;;;;;12.68;9.70;;;24.10;15.50;;;;;;5071282;28;20227;-88
2021/03/25 10:54:28;;;;;;;10.38;8.52;;;24.00;16.30;;;;;;5080211;28;20278;-85
2021/03/25 10:57:05;;;;;;;10.77;7.30;;;23.60;16.40;;;;;;5069103;28;20196;-85
2021/03/25 10:59:34;;;;;;;11.07;7.97;;;23.70;15.80;;;;;;5073784;28;20233;-87
2021/03/25 11:02:01;;;;;;;9.05;7.65;;;23.60;14.80;;;;;;5085035;28;20272;-85
2021/03/25 11:04:30;;;;;;;9.18;7.55;;;23.90;15.70;;;;;;5087788;28;20229;-85
2021/03/25 11:07:09;;;;;;;11.63;7.28;;;24.50;15.80;;;;;;5088742;28;20214;-85
2021/03/25 11:09:35;;;;;;;10.55;7.47;;;23.70;15.20;;;;;;5082726;28;20234;-85
2021/03/25 11:12:12;;;;;;;10.52;7.95;;;23.30;16.00;;;;;;5077577;28;20189;-83
2021/03/25 11:14:46;;;;;;;12.35;6.90;;;22.50;16.80;;;;;;5078477;28;20224;-86
2021/03/25 11:17:19;;;;;;;11.65;7.47;;;21.80;17.70;;;;;;5090567;28;20200;-83
2021/03/25 11:19:48;;;;;;;9.95;7.65;;;21.00;18.70;;;;;;5079767;28;20240;-86
2021/03/25 11:22:14;;;;;;;11.52;8.20;;;20.40;19.60;;;;;;5083287;28;20376;-86
2021/03/25 11:24:41;;;;;;;10.75;7.78;;;19.80;20.10;;;;;;5079509;28;20528;-87
2021/03/25 11:27:16;;;;;;;9.95;7.65;;;19.30;20.40;;;;;;5073941;28;20216;-89
2021/03/25 11:29:45;;;;;;;15.82;7.93;;;19.00;24.80;;;;;;5073212;28;20236;-92
2021/03/25 11:32:20;;;;;;;9.90;7.25;;;18.80;22.40;;;;;;5061925;28;20197;-89
2021/03/25 11:34:49;;;;;;;11.68;7.30;;;18.80;22.20;;;;;;5079285;28;20231;-89
2021/03/25 11:37:22;;;;;;;12.73;7.03;;;18.50;22.70;;;;;;5075247;28;20200;-88
2021/03/25 11:40:01;;;;;;;9.02;6.45;;;18.40;22.10;;;;;;5073336;28;20225;-88
2021/03/25 11:42:30;;;;;;;8.90;6.20;;;18.30;23.00;;;;;;5074575;28;20990;-89
2021/03/25 11:44:58;;;;;;;8.10;5.72;;;18.30;22.00;;;;;;5069825;28;20216;-88
2021/03/25 11:47:48;;;;;;;7.38;5.57;;;18.10;23.70;;;;;;5071366;28;20576;-88
2021/03/25 11:50:35;;;;;;;9.38;6.00;;;17.70;24.40;;;;;;5058593;28;20220;-88
2021/03/25 11:53:04;;;;;;;7.20;5.68;;;17.80;24.60;;;;;;5068920;28;20197;-88
2021/03/25 11:55:35;;;;;;;7.38;5.90;;;17.90;24.50;;;;;;5070375;28;20259;-89
2021/03/25 11:58:17;;;;;;;7.65;5.80;;;17.90;24.10;;;;;;5066355;28;20205;-89
2021/03/25 12:01:03;;;;;;;10.77;5.70;;;18.10;24.80;;;;;;5067870;28;20343;-88
2021/03/25 12:03:33;;;;;;;6.93;5.75;;;18.10;24.50;;;;;;5070442;28;20204;-89
2021/03/25 12:05:59;;;;;;;11.77;5.28;;;18.00;22.90;;;;;;5071244;28;20521;-89
2021/03/25 12:08:32;;;;;;;8.02;5.18;;;17.70;25.30;;;;;;5066611;28;20205;-89
2021/03/25 12:11:11;;;;;;;7.68;5.57;;;17.90;24.80;;;;;;5070906;28;20295;-89
2021/03/25 12:13:38;;;;;;;9.65;5.78;;;18.00;23.50;;;;;;5068685;28;20668;-88
2021/03/25 12:16:09;;;;;;;7.68;5.50;;;17.90;23.50;;;;;;5068498;28;20221;-88
2021/03/25 12:18:38;;;;;;;8.85;5.80;;;17.90;23.60;;;;;;5067778;28;20239;-89
2021/03/25 12:21:08;;;;;;;8.10;5.57;;;17.70;23.30;;;;;;5069470;28;20228;-88
2021/03/25 12:23:36;;;;;;;8.52;5.07;;;17.30;23.70;;;;;;5055035;28;20205;-89
2021/03/25 12:26:05;;;;;;;6.88;4.53;;;17.40;25.40;;;;;;5072981;28;20228;-88
2021/03/25 12:28:32;;;;;;;7.13;4.25;;;17.60;21.70;;;;;;5070050;28;20246;-89
2021/03/25 12:31:16;;;;;;;5.20;4.45;;;17.50;21.30;;;;;;5057500;28;20227;-88
2021/03/25 12:33:43;;;;;;;9.90;5.25;;;17.70;21.50;;;;;;5073340;28;20258;-88
2021/03/25 12:36:14;;;;;;;11.45;5.50;;;17.50;22.00;;;;;;5073899;28;20286;-88
2021/03/25 12:38:41;;;;;;;8.73;5.13;;;17.50;23.30;;;;;;5068382;28;20234;-89
2021/03/25 12:41:08;;;;;;;8.23;5.10;;;17.60;23.20;;;;;;5075865;28;20312;-88
2021/03/25 12:43:42;;;;;;;6.95;4.70;;;17.50;20.50;;;;;;5059789;28;20210;-89
2021/03/25 12:46:09;;;;;;;5.22;4.57;;;17.50;22.70;;;;;;5069064;28;20222;-88
2021/03/25 12:48:40;;;;;;;6.93;4.47;;;17.70;23.30;;;;;;5072871;28;20207;-89
2021/03/25 12:51:16;;;;;;;7.88;5.32;;;17.90;23.20;;;;;;5075593;28;20248;-89
2021/03/25 12:53:47;;;;;;;8.82;5.35;;;17.90;22.40;;;;;;5071694;28;20205;-89
2021/03/25 12:56:16;;;;;;;6.28;4.80;;;17.90;22.90;;;;;;5070957;28;20232;-88
2021/03/25 12:58:43;;;;;;;7.13;4.45;;;17.90;21.00;;;;;;5077664;28;20227;-88
2021/03/25 13:01:14;;;;;;;9.48;4.85;;;17.80;20.40;;;;;;5074065;28;20221;-89
2021/03/25 13:03:48;;;;;;;6.43;4.65;;;17.70;22.60;;;;;;5080999;28;20198;-88
2021/03/25 13:06:18;;;;;;;7.47;4.80;;;17.60;22.20;;;;;;5074424;28;20229;-89
2021/03/25 13:08:44;;;;;;;5.65;3.90;;;17.50;20.70;;;;;;5072468;28;20214;-88
2021/03/25 13:11:12;;;;;;;10.77;3.50;;;17.50;20.50;;;;;;5069764;28;20223;-88
2021/03/25 13:13:39;;;;;;;3.83;3.20;;;17.50;19.70;;;;;;5072156;28;20247;-90
2021/03/25 13:16:06;;;;;;;4.25;3.60;;;17.60;21.50;;;;;;5070165;28;20221;-89
2021/03/25 13:18:32;;;;;;;4.95;4.20;;;17.50;22.10;;;;;;5078616;28;20232;-88
2021/03/25 13:21:00;;;;;;;6.70;4.50;;;17.60;22.20;;;;;;5071424;28;20311;-88
2021/03/25 13:23:26;;;;;;;5.78;4.00;;;17.50;21.20;;;;;;5071640;28;20210;-89
2021/03/25 13:25:53;;;;;;;6.25;4.30;;;17.40;21.60;;;;;;5072824;28;20296;-88
2021/03/25 13:28:22;;;;;;;5.95;3.90;;;17.60;23.50;;;;;;5073963;28;20231;-88
2021/03/25 13:30:50;;;;;;;9.35;4.55;;;17.60;20.60;;;;;;5073823;28;20250;-89
2021/03/25 13:33:18;;;;;;;6.10;4.55;;;17.60;21.00;;;;;;5072636;28;20201;-88
2021/03/25 13:35:45;;;;;;;8.20;4.68;;;17.70;20.60;;;;;;5072664;28;20567;-88
2021/03/25 13:38:13;;;;;;;5.18;4.03;;;17.60;20.50;;;;;;5083040;28;20205;-88
2021/03/25 13:40:41;;;;;;;8.90;5.03;;;17.60;20.90;;;;;;5082613;28;20220;-89
2021/03/25 13:43:10;;;;;;;7.85;4.63;;;17.40;21.20;;;;;;5072362;28;20336;-90
2021/03/25 13:45:36;;;;;;;6.18;4.43;;;17.50;21.70;;;;;;5071775;28;20237;-89